createdAt,value
2022-11-12T00:00:50.383Z,92.90
2022-11-12T00:03:51.991Z,92.80
2022-11-12T00:06:53.565Z,92.80
2022-11-12T00:09:55.162Z,92.90
2022-11-12T00:12:56.688Z,92.80
2022-11-12T00:15:58.228Z,92.90
2022-11-12T00:18:59.786Z,92.80
2022-11-12T00:22:01.296Z,92.80
2022-11-12T00:25:03.940Z,93.00
2022-11-12T00:28:08.852Z,92.80
2022-11-12T00:31:11.839Z,92.90
2022-11-12T00:34:13.474Z,93.00
2022-11-12T00:37:15.003Z,93.10
2022-11-12T00:40:16.628Z,93.00
2022-11-12T00:43:18.301Z,93.10
2022-11-12T00:46:19.880Z,93.10
2022-11-12T00:49:21.804Z,93.00
2022-11-12T00:52:23.368Z,93.20
2022-11-12T00:55:24.945Z,93.30
2022-11-12T00:58:29.093Z,93.40
2022-11-12T01:01:30.658Z,93.30
2022-11-12T01:04:32.382Z,93.40
2022-11-12T01:07:34.875Z,93.40
2022-11-12T01:10:36.662Z,93.50
2022-11-12T01:13:43.986Z,93.50
2022-11-12T01:16:46.319Z,93.80
2022-11-12T01:19:47.869Z,93.70
2022-11-12T01:22:49.449Z,93.90
2022-11-12T01:25:51.016Z,93.70
2022-11-12T01:28:53.144Z,93.70
2022-11-12T01:31:54.765Z,93.70
2022-11-12T01:34:56.326Z,93.70
2022-11-12T01:37:57.922Z,93.80
2022-11-12T01:40:59.441Z,93.60
2022-11-12T01:44:20.319Z,93.90
2022-11-12T01:47:29.680Z,94.00
2022-11-12T01:50:33.808Z,92.90
2022-11-12T01:53:40.457Z,93.60
2022-11-12T01:56:42.757Z,93.90
2022-11-12T01:59:46.553Z,93.70
2022-11-12T02:02:55.019Z,93.90
2022-11-12T02:06:01.513Z,93.90
2022-11-12T02:09:03.744Z,93.90
2022-11-12T02:12:06.059Z,93.70
2022-11-12T02:15:08.000Z,93.60
2022-11-12T02:18:09.571Z,93.70
2022-11-12T02:21:11.205Z,93.70
2022-11-12T02:24:12.698Z,93.80
2022-11-12T02:27:14.404Z,93.70
2022-11-12T02:30:16.094Z,93.80
2022-11-12T02:33:17.616Z,93.80
2022-11-12T02:36:19.283Z,94.40
2022-11-12T02:39:20.866Z,94.00
2022-11-12T02:42:22.416Z,94.00
2022-11-12T02:45:24.050Z,94.00
2022-11-12T02:48:25.834Z,94.10
2022-11-12T02:51:27.542Z,94.00
2022-11-12T02:54:29.073Z,94.00
2022-11-12T02:57:30.877Z,94.20
2022-11-12T03:00:32.430Z,93.60
2022-11-12T03:03:33.934Z,94.40
2022-11-12T03:06:35.514Z,94.10
2022-11-12T03:09:37.124Z,94.20
2022-11-12T03:12:38.732Z,94.10
2022-11-12T03:15:40.251Z,94.00
2022-11-12T03:18:41.907Z,94.10
2022-11-12T03:21:43.453Z,93.90
2022-11-12T03:24:44.999Z,94.00
2022-11-12T03:27:46.554Z,94.00
2022-11-12T03:30:48.199Z,93.90
2022-11-12T03:33:49.718Z,93.80
2022-11-12T03:36:51.281Z,93.90
2022-11-12T03:39:52.786Z,93.80
2022-11-12T03:42:54.899Z,93.90
2022-11-12T03:45:56.412Z,93.90
2022-11-12T03:48:59.185Z,94.00
2022-11-12T03:52:00.708Z,93.90
2022-11-12T03:55:02.235Z,93.90
2022-11-12T03:58:03.903Z,93.90
2022-11-12T04:01:05.547Z,94.00
2022-11-12T04:04:07.111Z,94.00
2022-11-12T04:07:27.545Z,93.90
2022-11-12T04:14:42.140Z,93.50
2022-11-12T04:18:02.167Z,93.40
2022-11-12T04:21:22.546Z,93.20
2022-11-12T04:24:51.072Z,93.20
2022-11-12T04:27:52.605Z,94.10
2022-11-12T04:30:54.162Z,94.00
2022-11-12T04:33:55.698Z,93.90
2022-11-12T04:36:57.238Z,94.20
2022-11-12T04:40:18.733Z,94.10
2022-11-12T04:43:38.963Z,94.30
2022-11-12T04:46:40.523Z,93.70
2022-11-12T04:49:42.035Z,94.30
2022-11-12T04:52:44.198Z,94.50
2022-11-12T04:55:45.735Z,94.40
2022-11-12T04:58:47.277Z,94.50
2022-11-12T05:01:48.861Z,94.30
2022-11-12T05:04:50.467Z,94.30
2022-11-12T05:07:51.974Z,94.30
2022-11-12T05:10:53.585Z,94.40
2022-11-12T05:13:55.105Z,94.30
2022-11-12T05:16:56.714Z,94.40
2022-11-12T05:19:58.214Z,94.50
2022-11-12T05:23:06.804Z,94.40
2022-11-12T05:26:08.801Z,94.30
2022-11-12T05:29:10.342Z,94.60
2022-11-12T05:32:14.894Z,94.50
2022-11-12T05:35:16.583Z,94.60
2022-11-12T05:38:18.103Z,94.40
2022-11-12T05:41:20.254Z,94.60
2022-11-12T05:44:22.075Z,94.50
2022-11-12T05:47:23.621Z,94.70
2022-11-12T05:50:28.178Z,94.60
2022-11-12T05:53:36.231Z,94.50
2022-11-12T05:56:38.687Z,94.40
2022-11-12T05:59:40.210Z,94.60
2022-11-12T06:02:43.027Z,94.50
2022-11-12T06:05:44.756Z,94.60
2022-11-12T06:08:46.350Z,94.60
2022-11-12T06:11:47.887Z,94.70
2022-11-12T06:14:49.409Z,94.70
2022-11-12T06:17:51.000Z,94.70
2022-11-12T06:21:11.442Z,94.80
2022-11-12T06:24:13.085Z,94.20
2022-11-12T06:27:14.617Z,94.70
2022-11-12T06:30:21.658Z,94.70
2022-11-12T06:33:26.127Z,94.90
2022-11-12T06:36:27.657Z,94.70
2022-11-12T06:39:29.196Z,95.10
2022-11-12T06:42:30.928Z,94.90
2022-11-12T06:45:32.463Z,95.00
2022-11-12T06:48:34.045Z,94.80
2022-11-12T06:51:35.765Z,94.80
2022-11-12T06:54:37.342Z,94.80
2022-11-12T06:57:38.908Z,95.40
2022-11-12T07:00:40.489Z,94.60
2022-11-12T07:03:43.949Z,94.80
2022-11-12T07:06:45.606Z,94.80
2022-11-12T07:09:47.188Z,94.80
2022-11-12T07:12:53.197Z,94.70
2022-11-12T07:15:58.160Z,94.70
2022-11-12T07:18:59.758Z,94.70
2022-11-12T07:22:01.269Z,94.70
2022-11-12T07:25:03.040Z,94.80
2022-11-12T07:28:04.657Z,94.60
2022-11-12T07:31:09.709Z,95.10
2022-11-12T07:34:11.227Z,94.70
2022-11-12T07:37:12.872Z,94.90
2022-11-12T07:40:15.142Z,94.90
2022-11-12T07:43:16.684Z,95.00
2022-11-12T07:46:19.435Z,95.10
2022-11-12T07:49:21.036Z,95.10
2022-11-12T07:52:22.701Z,95.00
2022-11-12T07:55:24.266Z,95.00
2022-11-12T07:58:27.171Z,95.10
2022-11-12T08:01:36.694Z,95.10
2022-11-12T08:04:38.239Z,95.30
2022-11-12T08:07:39.855Z,95.00
2022-11-12T08:10:41.636Z,95.10
2022-11-12T08:13:43.319Z,95.00
2022-11-12T08:16:46.547Z,94.90
2022-11-12T08:19:48.167Z,95.00
2022-11-12T08:22:49.909Z,95.00
2022-11-12T08:25:51.506Z,95.10
2022-11-12T08:28:53.052Z,95.10
2022-11-12T08:31:54.617Z,95.20
2022-11-12T08:34:56.180Z,95.10
2022-11-12T08:38:02.527Z,95.40
2022-11-12T08:41:06.641Z,95.20
2022-11-12T08:44:08.974Z,95.10
2022-11-12T08:47:10.776Z,95.00
2022-11-12T08:50:12.460Z,94.90
2022-11-12T08:53:14.170Z,94.90
2022-11-12T08:56:15.997Z,94.70
2022-11-12T08:59:17.636Z,94.90
2022-11-12T09:02:19.251Z,94.70
2022-11-12T09:05:20.841Z,94.60
2022-11-12T09:08:25.287Z,94.80
2022-11-12T09:11:27.169Z,94.70
2022-11-12T09:14:29.938Z,94.70
2022-11-12T09:17:32.510Z,94.60
2022-11-12T09:20:34.359Z,94.80
2022-11-12T09:23:36.743Z,94.70
2022-11-12T09:26:38.247Z,94.60
2022-11-12T09:29:39.790Z,94.70
2022-11-12T09:32:41.411Z,94.50
2022-11-12T09:35:43.601Z,94.40
2022-11-12T09:38:45.219Z,94.60
2022-11-12T09:41:47.100Z,94.50
2022-11-12T09:44:57.222Z,94.70
2022-11-12T09:48:08.318Z,94.70
2022-11-12T09:51:21.604Z,93.80
2022-11-12T09:54:29.929Z,94.90
2022-11-12T09:57:33.446Z,94.70
2022-11-12T10:00:35.818Z,94.40
2022-11-12T10:03:46.637Z,94.20
2022-11-12T10:06:57.416Z,94.20
2022-11-12T10:10:20.249Z,93.20
2022-11-12T10:13:59.586Z,93.30
2022-11-12T10:17:27.920Z,93.10
2022-11-12T10:20:38.962Z,93.60
2022-11-12T10:23:46.171Z,92.70
2022-11-12T10:26:52.139Z,93.10
2022-11-12T10:29:59.639Z,92.30
2022-11-12T10:33:01.183Z,92.70
2022-11-12T10:36:19.986Z,92.20
2022-11-12T10:39:41.989Z,92.20
2022-11-12T10:43:16.093Z,90.90
2022-11-12T10:46:26.700Z,91.80
2022-11-12T10:49:28.256Z,91.90
2022-11-12T10:52:29.910Z,91.80
2022-11-12T10:55:35.040Z,91.80
2022-11-12T10:58:36.612Z,91.90
2022-11-12T11:01:43.016Z,92.00
2022-11-12T11:04:47.041Z,92.00
2022-11-12T11:07:51.485Z,92.00
2022-11-12T11:11:14.628Z,91.90
2022-11-12T11:14:22.357Z,91.90
2022-11-12T11:17:23.902Z,92.10
2022-11-12T11:20:43.993Z,92.00
2022-11-12T11:24:14.411Z,91.80
2022-11-12T11:27:25.318Z,91.00
2022-11-12T11:30:27.211Z,91.20
2022-11-12T11:33:37.687Z,92.30
2022-11-12T11:36:53.764Z,91.20
2022-11-12T11:40:16.511Z,91.60
2022-11-12T11:43:34.068Z,90.70
2022-11-12T11:47:04.784Z,91.40
2022-11-12T11:50:17.099Z,90.40
2022-11-12T11:53:18.626Z,90.70
2022-11-12T11:56:28.303Z,90.80
2022-11-12T12:00:07.200Z,90.70
2022-11-12T12:03:19.601Z,90.30
2022-11-12T12:06:32.076Z,91.00
2022-11-12T12:09:47.862Z,90.10
2022-11-12T12:13:05.303Z,90.00
2022-11-12T12:16:15.460Z,90.20
2022-11-12T12:19:41.451Z,88.80
2022-11-12T12:22:59.056Z,89.10
2022-11-12T12:26:03.045Z,89.90
2022-11-12T12:29:13.710Z,90.30
2022-11-12T12:32:34.191Z,89.90
2022-11-12T12:35:50.428Z,89.90
2022-11-12T12:38:59.436Z,90.30
2022-11-12T12:42:09.446Z,88.90
2022-11-12T12:45:38.134Z,90.10
2022-11-12T12:48:45.068Z,88.30
2022-11-12T12:51:50.338Z,89.30
2022-11-12T12:54:56.222Z,89.40
2022-11-12T12:58:00.923Z,87.80
2022-11-12T13:01:19.636Z,87.40
2022-11-12T13:04:53.002Z,85.60
2022-11-12T13:07:59.053Z,86.20
2022-11-12T13:11:00.642Z,88.20
2022-11-12T13:14:31.424Z,87.80
2022-11-12T13:17:47.796Z,86.10
2022-11-12T13:21:10.951Z,85.90
2022-11-12T13:24:14.153Z,86.30
2022-11-12T13:27:44.463Z,87.30
2022-11-12T13:30:45.971Z,85.80
2022-11-12T13:33:48.247Z,87.30
2022-11-12T13:36:58.278Z,86.40
2022-11-12T13:40:03.968Z,86.70
2022-11-12T13:43:40.335Z,86.50
2022-11-12T13:46:44.086Z,84.90
2022-11-12T13:49:47.302Z,86.70
2022-11-12T13:52:49.751Z,86.30
2022-11-12T13:55:53.448Z,86.00
2022-11-12T13:58:55.211Z,86.30
2022-11-12T14:01:56.843Z,86.30
2022-11-12T14:04:58.493Z,86.30
2022-11-12T14:08:11.918Z,86.70
2022-11-12T14:11:19.587Z,83.90
2022-11-12T14:14:47.308Z,85.60
2022-11-12T14:18:14.803Z,84.20
2022-11-12T14:21:17.982Z,84.90
2022-11-12T14:24:20.291Z,87.80
2022-11-12T14:27:34.013Z,86.90
2022-11-12T14:30:44.580Z,85.50
2022-11-12T14:33:46.089Z,86.90
2022-11-12T14:36:49.077Z,89.20
2022-11-12T14:39:50.796Z,88.20
2022-11-12T14:42:53.013Z,87.90
2022-11-12T14:45:56.461Z,88.00
2022-11-12T14:49:12.207Z,88.20
2022-11-12T14:52:31.322Z,87.90
2022-11-12T14:55:36.292Z,86.60
2022-11-12T14:58:39.795Z,88.60
2022-11-12T15:05:27.339Z,88.90
2022-11-12T15:08:34.888Z,89.00
2022-11-12T15:11:42.470Z,88.40
2022-11-12T15:14:44.048Z,89.10
2022-11-12T15:17:45.635Z,89.50
2022-11-12T15:21:11.786Z,89.70
2022-11-12T15:24:43.679Z,88.00
2022-11-12T15:27:45.303Z,90.60
2022-11-12T15:31:02.465Z,90.10
2022-11-12T15:34:41.230Z,90.10
2022-11-12T15:37:43.324Z,89.50
2022-11-12T15:40:54.530Z,90.80
2022-11-12T15:43:59.461Z,90.50
2022-11-12T15:47:01.570Z,90.50
2022-11-12T15:50:15.844Z,90.60
2022-11-12T15:53:17.430Z,90.20
2022-11-12T15:56:22.135Z,90.70
2022-11-12T15:59:23.719Z,90.70
2022-11-12T16:02:25.856Z,90.90
2022-11-12T16:05:27.365Z,91.00
2022-11-12T16:08:28.890Z,91.00
2022-11-12T16:11:36.344Z,91.10
2022-11-12T16:14:39.176Z,90.90
2022-11-12T16:17:40.977Z,90.90
2022-11-12T16:20:42.614Z,90.80
2022-11-12T16:23:44.560Z,90.70
2022-11-12T16:26:46.198Z,90.90
2022-11-12T16:29:47.721Z,91.00
2022-11-12T16:32:49.362Z,91.20
2022-11-12T16:35:51.265Z,91.10
2022-11-12T16:38:52.881Z,91.20
2022-11-12T16:41:54.442Z,91.30
2022-11-12T16:44:56.021Z,91.70
2022-11-12T16:47:58.205Z,91.20
2022-11-12T16:51:00.748Z,91.30
2022-11-12T16:54:02.494Z,91.20
2022-11-12T16:57:04.176Z,91.20
2022-11-12T17:00:07.126Z,91.50
2022-11-12T17:03:12.659Z,91.20
2022-11-12T17:06:14.192Z,91.60
2022-11-12T17:09:16.534Z,91.70
2022-11-12T17:12:18.045Z,91.70
2022-11-12T17:15:19.926Z,91.90
2022-11-12T17:18:21.432Z,91.90
2022-11-12T17:21:23.714Z,91.90
2022-11-12T17:24:28.679Z,92.00
2022-11-12T17:27:30.803Z,92.10
2022-11-12T17:30:35.118Z,92.10
2022-11-12T17:33:49.477Z,92.00
2022-11-12T17:36:50.977Z,92.40
2022-11-12T17:39:53.613Z,92.20
2022-11-12T17:42:55.143Z,92.10
2022-11-12T17:45:57.452Z,92.20
2022-11-12T17:48:59.042Z,92.60
2022-11-12T17:52:03.239Z,92.10
2022-11-12T17:55:14.578Z,92.00
2022-11-12T17:58:16.565Z,92.60
2022-11-12T18:01:21.825Z,92.50
2022-11-12T18:04:40.896Z,92.50
2022-11-12T18:07:42.788Z,93.00
2022-11-12T18:10:45.486Z,92.70
2022-11-12T18:13:47.116Z,93.00
2022-11-12T18:16:49.175Z,92.70
2022-11-12T18:19:51.432Z,92.60
2022-11-12T18:22:52.980Z,92.70
2022-11-12T18:25:54.542Z,92.50
2022-11-12T18:28:57.964Z,92.50
2022-11-12T18:31:59.579Z,92.50
2022-11-12T18:35:01.155Z,92.50
2022-11-12T18:38:02.750Z,92.50
2022-11-12T18:41:08.181Z,92.50
2022-11-12T18:44:09.964Z,92.40
2022-11-12T18:47:11.708Z,92.20
2022-11-12T18:50:13.415Z,91.70
2022-11-12T18:53:14.979Z,91.60
2022-11-12T18:56:19.075Z,91.50
2022-11-12T18:59:21.826Z,91.50
2022-11-12T19:02:23.395Z,91.70
2022-11-12T19:05:25.121Z,91.80
2022-11-12T19:08:26.706Z,92.00
2022-11-12T19:11:28.279Z,92.10
2022-11-12T19:14:30.261Z,92.00
2022-11-12T19:17:31.874Z,92.10
2022-11-12T19:20:33.392Z,92.10
2022-11-12T19:23:35.526Z,92.10
2022-11-12T19:26:37.050Z,92.20
2022-11-12T19:29:38.574Z,92.10
2022-11-12T19:32:40.212Z,92.20
2022-11-12T19:35:41.925Z,92.10
2022-11-12T19:38:43.808Z,92.30
2022-11-12T19:41:45.317Z,92.20
2022-11-12T19:44:47.009Z,92.30
2022-11-12T19:47:50.666Z,92.70
2022-11-12T19:50:52.870Z,93.00
2022-11-12T19:53:54.515Z,92.60
2022-11-12T19:56:56.082Z,92.70
2022-11-12T19:59:57.607Z,92.60
2022-11-12T20:02:59.954Z,92.70
2022-11-12T20:06:03.782Z,92.70
2022-11-12T20:09:05.439Z,92.80
2022-11-12T20:12:07.254Z,92.80
2022-11-12T20:15:09.426Z,92.70
2022-11-12T20:18:10.968Z,92.90
2022-11-12T20:21:12.583Z,92.90
2022-11-12T20:24:14.097Z,92.80
2022-11-12T20:27:17.428Z,92.90
2022-11-12T20:30:18.988Z,93.00
2022-11-12T20:33:20.547Z,93.00
2022-11-12T20:36:23.169Z,92.90
2022-11-12T20:39:24.715Z,93.00
2022-11-12T20:42:26.248Z,93.60
2022-11-12T20:45:27.891Z,93.00
2022-11-12T20:48:29.879Z,93.50
2022-11-12T20:51:33.208Z,93.20
2022-11-12T20:54:34.788Z,93.20
2022-11-12T20:57:36.393Z,93.20
2022-11-12T21:00:38.885Z,93.40
2022-11-12T21:03:40.740Z,93.50
2022-11-12T21:06:42.320Z,93.10
2022-11-12T21:09:44.722Z,93.20
2022-11-12T21:12:46.261Z,93.10
2022-11-12T21:15:48.113Z,93.70
2022-11-12T21:18:49.640Z,93.20
2022-11-12T21:21:51.180Z,93.20
2022-11-12T21:24:52.699Z,93.30
2022-11-12T21:27:54.339Z,93.30
2022-11-12T21:31:02.743Z,93.10
2022-11-12T21:34:04.824Z,93.60
2022-11-12T21:37:06.372Z,93.40
2022-11-12T21:40:08.664Z,93.30
2022-11-12T21:43:10.201Z,93.20
2022-11-12T21:46:25.130Z,93.50
2022-11-12T21:49:26.714Z,93.10
2022-11-12T21:52:28.811Z,93.70
2022-11-12T21:55:30.322Z,93.80
2022-11-12T21:58:31.955Z,93.70
2022-11-12T22:01:34.754Z,93.80
2022-11-12T22:04:36.417Z,93.90
2022-11-12T22:07:37.924Z,93.80
2022-11-12T22:10:39.470Z,93.90
2022-11-12T22:13:42.260Z,93.80
2022-11-12T22:16:43.995Z,94.00
2022-11-12T22:19:45.520Z,94.10
2022-11-12T22:22:47.035Z,94.10
2022-11-12T22:25:50.531Z,94.10
2022-11-12T22:28:56.872Z,94.00
2022-11-12T22:31:58.431Z,94.20
2022-11-12T22:35:00.026Z,94.10
2022-11-12T22:38:01.581Z,94.20
2022-11-12T22:41:05.457Z,94.20
2022-11-12T22:44:07.089Z,94.30
2022-11-12T22:47:08.589Z,94.20
2022-11-12T22:50:10.264Z,94.30
2022-11-12T22:53:11.775Z,94.40
2022-11-12T22:56:15.918Z,94.40
2022-11-12T22:59:17.422Z,94.50
2022-11-12T23:02:18.990Z,94.50
2022-11-12T23:05:20.505Z,94.50
2022-11-12T23:08:22.057Z,94.50
2022-11-12T23:11:33.013Z,94.50
2022-11-12T23:14:39.904Z,94.80
2022-11-12T23:17:41.420Z,94.30
2022-11-12T23:20:46.057Z,94.50
2022-11-12T23:23:47.668Z,94.60
2022-11-12T23:26:49.251Z,94.50
2022-11-12T23:29:53.203Z,94.50
2022-11-12T23:32:54.811Z,94.70
2022-11-12T23:36:15.093Z,94.50
2022-11-12T23:39:16.657Z,94.00
2022-11-12T23:42:18.268Z,94.60
2022-11-12T23:45:19.875Z,94.70
2022-11-12T23:48:22.209Z,94.70
2022-11-12T23:51:23.800Z,94.60
2022-11-12T23:54:25.406Z,94.70
2022-11-12T23:57:26.984Z,94.70
